createdAt,value
2017-05-15T00:00:22.254Z,951.7
2017-05-15T00:01:30.336Z,951.6
2017-05-15T00:02:38.430Z,951.7
2017-05-15T00:03:46.507Z,951.7
2017-05-15T00:04:54.714Z,951.7
2017-05-15T00:06:02.681Z,951.7
2017-05-15T00:07:10.767Z,951.7
2017-05-15T00:08:18.855Z,951.7
2017-05-15T00:09:26.938Z,951.7
2017-05-15T00:10:35.141Z,951.8
2017-05-15T00:11:43.287Z,951.8
2017-05-15T00:12:51.392Z,951.8
2017-05-15T00:13:59.286Z,951.8
2017-05-15T00:15:07.370Z,951.8
2017-05-15T00:16:15.578Z,951.8
2017-05-15T00:17:23.544Z,951.8
2017-05-15T00:18:31.748Z,951.8
2017-05-15T00:19:39.714Z,951.8
2017-05-15T00:20:47.800Z,951.8
2017-05-15T00:21:56.010Z,951.8
2017-05-15T00:23:03.971Z,951.8
2017-05-15T00:24:12.105Z,951.8
2017-05-15T00:25:20.146Z,951.8
2017-05-15T00:26:28.288Z,951.9
2017-05-15T00:27:36.435Z,951.8
2017-05-15T00:28:44.400Z,951.8
2017-05-15T00:29:52.485Z,951.8
2017-05-15T00:31:00.569Z,951.9
2017-05-15T00:32:08.658Z,951.8
2017-05-15T00:33:16.861Z,951.9
2017-05-15T00:34:24.830Z,951.9
2017-05-15T00:35:32.915Z,951.9
2017-05-15T00:36:40.999Z,952.0
2017-05-15T00:37:49.085Z,952.0
2017-05-15T00:38:57.226Z,952.1
2017-05-15T00:40:05.255Z,952.1
2017-05-15T00:41:13.342Z,952.1
2017-05-15T00:42:21.546Z,952.1
2017-05-15T00:43:29.512Z,952.2
2017-05-15T00:44:37.719Z,952.1
2017-05-15T00:45:45.686Z,952.1
2017-05-15T00:46:53.776Z,952.1
2017-05-15T00:48:02.039Z,952.1
2017-05-15T00:49:09.941Z,952.1
2017-05-15T00:50:18.092Z,952.1
2017-05-15T00:51:26.116Z,952.1
2017-05-15T00:52:34.198Z,952.1
2017-05-15T00:53:42.420Z,952.1
2017-05-15T00:54:50.370Z,952.0
2017-05-15T00:55:58.581Z,952.1
2017-05-15T00:57:06.542Z,952.1
2017-05-15T00:58:14.747Z,952.0
2017-05-15T00:59:22.718Z,952.1
2017-05-15T01:00:30.801Z,952.0
2017-05-15T01:01:38.944Z,952.1
2017-05-15T01:02:46.974Z,952.0
2017-05-15T01:03:55.065Z,952.0
2017-05-15T01:05:03.146Z,952.0
2017-05-15T01:06:11.290Z,952.0
2017-05-15T01:07:19.377Z,952.0
2017-05-15T01:08:27.402Z,952.0
2017-05-15T01:09:35.489Z,952.0
2017-05-15T01:10:43.572Z,951.9
2017-05-15T01:11:51.666Z,951.9
2017-05-15T01:12:59.866Z,951.9
2017-05-15T01:14:07.887Z,951.9
2017-05-15T01:15:15.917Z,951.9
2017-05-15T01:16:24.002Z,951.9
2017-05-15T01:17:32.092Z,951.9
2017-05-15T01:18:40.292Z,951.9
2017-05-15T01:19:48.261Z,951.9
2017-05-15T01:20:56.345Z,951.9
2017-05-15T01:22:04.429Z,951.9
2017-05-15T01:23:12.514Z,951.8
2017-05-15T01:24:20.723Z,951.9
2017-05-15T01:25:28.688Z,951.9
2017-05-15T01:26:36.771Z,951.9
2017-05-15T01:27:44.856Z,951.9
2017-05-15T01:28:53.104Z,951.9
2017-05-15T01:30:01.346Z,951.9
2017-05-15T01:31:09.112Z,951.9
2017-05-15T01:32:17.203Z,951.9
2017-05-15T01:33:25.284Z,951.8
2017-05-15T01:34:33.373Z,951.8
2017-05-15T01:35:41.630Z,951.9
2017-05-15T01:36:49.540Z,951.8
2017-05-15T01:37:57.625Z,951.9
2017-05-15T01:39:05.712Z,951.9
2017-05-15T01:40:13.795Z,951.9
2017-05-15T01:41:22.001Z,951.9
2017-05-15T01:42:30.075Z,951.9
2017-05-15T01:43:38.056Z,951.9
2017-05-15T01:44:46.140Z,951.9
2017-05-15T01:45:54.345Z,951.9
2017-05-15T01:47:02.368Z,951.9
2017-05-15T01:48:10.461Z,951.9
2017-05-15T01:49:18.481Z,951.9
2017-05-15T01:50:26.568Z,951.9
2017-05-15T01:51:34.653Z,951.9
2017-05-15T01:52:42.857Z,951.9
2017-05-15T01:53:50.822Z,951.9
2017-05-15T01:54:58.909Z,951.9
2017-05-15T01:56:06.993Z,951.9
2017-05-15T01:57:15.078Z,951.9
2017-05-15T01:58:23.222Z,951.9
2017-05-15T01:59:31.249Z,951.9
2017-05-15T02:00:39.402Z,951.9
2017-05-15T02:01:47.540Z,951.9
2017-05-15T02:02:55.506Z,951.9
2017-05-15T02:04:03.647Z,951.8
2017-05-15T02:05:11.676Z,951.9
2017-05-15T02:06:19.762Z,951.9
2017-05-15T02:07:27.857Z,951.9
2017-05-15T02:08:35.944Z,951.9
2017-05-15T02:09:44.151Z,951.9
2017-05-15T02:10:52.115Z,951.9
2017-05-15T02:12:00.233Z,951.9
2017-05-15T02:13:08.292Z,951.9
2017-05-15T02:14:16.411Z,951.9
2017-05-15T02:15:24.514Z,951.9
2017-05-15T02:16:32.542Z,951.9
2017-05-15T02:17:40.749Z,951.9
2017-05-15T02:18:48.717Z,951.9
2017-05-15T02:19:56.802Z,951.9
2017-05-15T02:21:04.945Z,952.0
2017-05-15T02:22:12.973Z,952.0
2017-05-15T02:23:21.221Z,952.0
2017-05-15T02:24:29.142Z,952.0
2017-05-15T02:25:37.234Z,952.0
2017-05-15T02:26:45.434Z,952.0
2017-05-15T02:27:53.402Z,952.0
2017-05-15T02:29:01.570Z,952.0
2017-05-15T02:30:09.755Z,952.0
2017-05-15T02:31:17.654Z,952.0
2017-05-15T02:32:25.868Z,952.0
2017-05-15T02:33:33.891Z,952.0
2017-05-15T02:34:41.919Z,952.0
2017-05-15T02:35:50.114Z,952.0
2017-05-15T02:36:58.091Z,951.9
2017-05-15T02:38:06.299Z,951.9
2017-05-15T02:39:14.270Z,951.9
2017-05-15T02:40:22.350Z,951.9
2017-05-15T02:41:30.479Z,951.9
2017-05-15T02:42:38.584Z,951.9
2017-05-15T02:43:46.730Z,951.9
2017-05-15T02:44:54.693Z,951.9
2017-05-15T02:46:02.788Z,951.9
2017-05-15T02:47:10.864Z,951.9
2017-05-15T02:48:18.947Z,952.0
2017-05-15T02:49:27.093Z,952.0
2017-05-15T02:50:35.124Z,952.0
2017-05-15T02:51:43.211Z,952.1
2017-05-15T02:52:51.294Z,952.1
2017-05-15T02:53:59.382Z,952.1
2017-05-15T02:55:07.581Z,952.1
2017-05-15T02:56:15.546Z,952.1
2017-05-15T02:57:23.634Z,952.1
2017-05-15T02:58:31.803Z,952.1
2017-05-15T02:59:39.802Z,952.1
2017-05-15T03:00:48.008Z,952.1
2017-05-15T03:01:55.976Z,952.1
2017-05-15T03:03:04.059Z,952.1
2017-05-15T03:04:12.143Z,952.2
2017-05-15T03:05:20.471Z,952.2
2017-05-15T03:06:28.436Z,952.2
2017-05-15T03:07:36.397Z,952.2
2017-05-15T03:08:44.484Z,952.2
2017-05-15T03:09:52.570Z,952.2
2017-05-15T03:11:00.773Z,952.1
2017-05-15T03:12:08.901Z,952.2
2017-05-15T03:13:16.827Z,952.2
2017-05-15T03:14:24.912Z,952.2
2017-05-15T03:15:32.998Z,952.1
2017-05-15T03:16:41.086Z,952.1
2017-05-15T03:17:49.354Z,952.2
2017-05-15T03:18:57.258Z,952.2
2017-05-15T03:20:05.342Z,952.2
2017-05-15T03:21:13.547Z,952.2
2017-05-15T03:22:21.520Z,952.2
2017-05-15T03:23:29.715Z,952.2
2017-05-15T03:24:37.683Z,952.2
2017-05-15T03:25:45.767Z,952.1
2017-05-15T03:26:53.866Z,952.1
2017-05-15T03:28:01.941Z,952.1
2017-05-15T03:29:10.144Z,952.1
2017-05-15T03:30:18.126Z,952.1
2017-05-15T03:31:26.195Z,952.1
2017-05-15T03:32:34.281Z,952.1
2017-05-15T03:33:42.374Z,952.1
2017-05-15T03:34:50.505Z,952.2
2017-05-15T03:35:58.539Z,952.2
2017-05-15T03:37:06.742Z,952.1
2017-05-15T03:38:14.708Z,952.1
2017-05-15T03:39:22.794Z,952.2
2017-05-15T03:40:31.001Z,952.1
2017-05-15T03:41:38.964Z,952.2
2017-05-15T03:42:47.050Z,952.2
2017-05-15T03:43:55.134Z,952.2
2017-05-15T03:45:03.218Z,952.2
2017-05-15T03:46:11.361Z,952.2
2017-05-15T03:47:19.560Z,952.2
2017-05-15T03:48:27.475Z,952.2
2017-05-15T03:49:35.559Z,952.1
2017-05-15T03:50:43.647Z,952.2
2017-05-15T03:51:51.853Z,952.2
2017-05-15T03:52:59.996Z,952.2
2017-05-15T03:54:07.907Z,952.2
2017-05-15T03:55:15.989Z,952.2
2017-05-15T03:56:24.075Z,952.2
2017-05-15T03:57:32.218Z,952.2
2017-05-15T03:58:40.252Z,952.2
2017-05-15T03:59:48.377Z,952.2
2017-05-15T04:00:56.417Z,952.2
2017-05-15T04:02:04.502Z,952.2
2017-05-15T04:03:12.710Z,952.3
2017-05-15T04:04:20.671Z,952.2
2017-05-15T04:05:28.756Z,952.2
2017-05-15T04:06:36.842Z,952.2
2017-05-15T04:07:44.931Z,952.2
2017-05-15T04:08:53.144Z,952.2
2017-05-15T04:10:01.109Z,952.2
2017-05-15T04:11:09.187Z,952.2
2017-05-15T04:12:17.277Z,952.2
2017-05-15T04:13:25.359Z,952.1
2017-05-15T04:14:33.551Z,952.2
2017-05-15T04:15:41.533Z,952.2
2017-05-15T04:16:49.615Z,952.2
2017-05-15T04:17:57.702Z,952.2
2017-05-15T04:19:05.785Z,952.2
2017-05-15T04:20:14.002Z,952.2
2017-05-15T04:21:21.958Z,952.2
2017-05-15T04:22:30.041Z,952.2
2017-05-15T04:23:38.129Z,952.2
2017-05-15T04:24:46.339Z,952.2
2017-05-15T04:25:54.357Z,952.3
2017-05-15T04:27:02.383Z,952.3
2017-05-15T04:28:10.468Z,952.3
2017-05-15T04:29:18.558Z,952.3
2017-05-15T04:30:26.638Z,952.3
2017-05-15T04:31:34.848Z,952.3
2017-05-15T04:32:42.807Z,952.3
2017-05-15T04:33:50.896Z,952.3
2017-05-15T04:34:59.229Z,952.3
2017-05-15T04:36:07.068Z,952.3
2017-05-15T04:37:16.953Z,952.3
2017-05-15T04:38:23.239Z,952.3
2017-05-15T04:39:31.331Z,952.3
2017-05-15T04:40:39.619Z,952.3
2017-05-15T04:41:47.685Z,952.4
2017-05-15T04:42:56.073Z,952.3
2017-05-15T04:44:03.669Z,952.4
2017-05-15T04:45:11.754Z,952.4
2017-05-15T04:46:19.838Z,952.4
2017-05-15T04:47:28.126Z,952.4
2017-05-15T04:48:36.132Z,952.4
2017-05-15T04:49:44.095Z,952.4
2017-05-15T04:50:52.178Z,952.4
2017-05-15T04:52:00.267Z,952.4
2017-05-15T04:53:08.470Z,952.4
2017-05-15T04:54:16.664Z,952.4
2017-05-15T04:55:24.525Z,952.5
2017-05-15T04:56:32.730Z,952.4
2017-05-15T04:57:40.701Z,952.4
2017-05-15T04:58:48.784Z,952.5
2017-05-15T04:59:57.147Z,952.5
2017-05-15T05:01:04.954Z,952.5
2017-05-15T05:02:13.040Z,952.5
2017-05-15T05:03:21.125Z,952.5
2017-05-15T05:04:29.213Z,952.5
2017-05-15T05:05:37.546Z,952.5
2017-05-15T05:06:45.673Z,952.5
2017-05-15T05:07:53.465Z,952.5
2017-05-15T05:09:01.547Z,952.6
2017-05-15T05:10:09.638Z,952.6
2017-05-15T05:11:17.845Z,952.6
2017-05-15T05:12:25.863Z,952.5
2017-05-15T05:13:33.891Z,952.6
2017-05-15T05:14:42.127Z,952.6
2017-05-15T05:15:50.069Z,952.6
2017-05-15T05:16:58.282Z,952.6
2017-05-15T05:18:06.817Z,952.6
2017-05-15T05:19:14.402Z,952.7
2017-05-15T05:20:22.413Z,952.6
2017-05-15T05:21:30.500Z,952.7
2017-05-15T05:22:38.699Z,952.8
2017-05-15T05:23:46.767Z,952.8
2017-05-15T05:24:54.797Z,952.8
2017-05-15T05:26:02.840Z,952.8
2017-05-15T05:27:10.921Z,952.8
2017-05-15T05:28:19.129Z,952.8
2017-05-15T05:29:27.090Z,952.9
2017-05-15T05:30:35.175Z,952.9
2017-05-15T05:31:43.262Z,952.9
2017-05-15T05:32:51.346Z,952.9
2017-05-15T05:33:59.552Z,952.9
2017-05-15T05:35:07.711Z,952.9
2017-05-15T05:36:15.603Z,952.9
2017-05-15T05:37:23.730Z,952.9
2017-05-15T05:38:31.772Z,953.0
2017-05-15T05:39:39.978Z,952.9
2017-05-15T05:40:48.205Z,952.9
2017-05-15T05:41:56.216Z,952.9
2017-05-15T05:43:04.114Z,953.0
2017-05-15T05:44:13.200Z,953.0
2017-05-15T05:45:20.403Z,953.0
2017-05-15T05:46:28.422Z,953.0
2017-05-15T05:47:36.575Z,953.1
2017-05-15T05:48:44.543Z,953.0
2017-05-15T05:49:52.623Z,953.1
2017-05-15T05:51:00.763Z,953.1
2017-05-15T05:52:08.791Z,953.1
2017-05-15T05:53:16.879Z,953.2
2017-05-15T05:54:25.064Z,953.2
2017-05-15T05:55:33.050Z,953.2
2017-05-15T05:56:41.258Z,953.2
2017-05-15T05:57:49.218Z,953.2
2017-05-15T05:58:57.559Z,953.2
2017-05-15T06:00:05.560Z,953.2
2017-05-15T06:01:13.474Z,953.2
2017-05-15T06:02:21.616Z,953.2
2017-05-15T06:03:29.645Z,953.2
2017-05-15T06:04:38.365Z,953.2
2017-05-15T06:05:45.818Z,953.2
2017-05-15T06:06:53.899Z,953.3
2017-05-15T06:08:02.104Z,953.3
2017-05-15T06:09:10.070Z,953.3
2017-05-15T06:10:18.187Z,953.3
2017-05-15T06:11:26.245Z,953.3
2017-05-15T06:12:35.010Z,953.3
2017-05-15T06:13:43.097Z,953.3
2017-05-15T06:14:50.567Z,953.3
2017-05-15T06:15:58.707Z,953.3
2017-05-15T06:17:06.835Z,953.3
2017-05-15T06:18:14.792Z,953.3
2017-05-15T06:19:23.614Z,953.3
2017-05-15T06:20:31.554Z,953.3
2017-05-15T06:21:39.407Z,953.3
2017-05-15T06:22:47.180Z,953.2
2017-05-15T06:23:55.213Z,953.3
2017-05-15T06:25:03.432Z,953.3
2017-05-15T06:26:11.345Z,953.3
2017-05-15T06:27:19.429Z,953.3
2017-05-15T06:28:27.517Z,953.4
2017-05-15T06:29:36.103Z,953.4
2017-05-15T06:30:43.805Z,953.4
2017-05-15T06:31:51.939Z,953.4
2017-05-15T06:32:59.864Z,953.4
2017-05-15T06:34:07.941Z,953.5
2017-05-15T06:35:16.374Z,953.5
2017-05-15T06:36:24.797Z,953.4
2017-05-15T06:37:32.191Z,953.4
2017-05-15T06:38:40.281Z,953.5
2017-05-15T06:39:48.364Z,953.5
2017-05-15T06:40:56.453Z,953.4
2017-05-15T06:42:04.765Z,953.5
2017-05-15T06:43:12.621Z,953.4
2017-05-15T06:44:20.703Z,953.5
2017-05-15T06:45:28.792Z,953.4
2017-05-15T06:46:37.293Z,953.4
2017-05-15T06:47:45.159Z,953.4
2017-05-15T06:48:53.249Z,953.5
2017-05-15T06:50:01.498Z,953.4
2017-05-15T06:51:09.214Z,953.4
2017-05-15T06:52:17.585Z,953.4
2017-05-15T06:53:25.510Z,953.5
2017-05-15T06:54:33.507Z,953.5
2017-05-15T06:55:41.550Z,953.5
2017-05-15T06:56:49.647Z,953.5
2017-05-15T06:57:57.721Z,953.5
2017-05-15T06:59:05.869Z,953.5
2017-05-15T07:00:13.892Z,953.5
2017-05-15T07:01:22.222Z,953.5
2017-05-15T07:02:30.062Z,953.5
2017-05-15T07:03:38.495Z,953.6
2017-05-15T07:04:46.554Z,953.6
2017-05-15T07:05:54.351Z,953.6
2017-05-15T07:07:02.409Z,953.6
2017-05-15T07:08:10.490Z,953.6
2017-05-15T07:09:18.575Z,953.6
2017-05-15T07:10:26.722Z,953.5
2017-05-15T07:11:34.785Z,953.5
2017-05-15T07:12:42.831Z,953.5
2017-05-15T07:13:50.921Z,953.5
2017-05-15T07:14:59.002Z,953.6
2017-05-15T07:16:07.205Z,953.5
2017-05-15T07:17:15.260Z,953.6
2017-05-15T07:18:23.261Z,953.5
2017-05-15T07:19:31.401Z,953.6
2017-05-15T07:20:39.430Z,953.6
2017-05-15T07:21:47.634Z,953.6
2017-05-15T07:22:55.625Z,953.6
2017-05-15T07:24:03.726Z,953.6
2017-05-15T07:25:11.777Z,953.7
2017-05-15T07:26:19.861Z,953.6
2017-05-15T07:27:28.068Z,953.6
2017-05-15T07:28:36.031Z,953.6
2017-05-15T07:29:44.118Z,953.6
2017-05-15T07:30:52.205Z,953.7
2017-05-15T07:32:00.294Z,953.7
2017-05-15T07:33:08.494Z,953.7
2017-05-15T07:34:16.461Z,953.6
2017-05-15T07:35:24.682Z,953.7
2017-05-15T07:36:32.675Z,953.7
2017-05-15T07:37:40.724Z,953.7
2017-05-15T07:38:48.931Z,953.7
2017-05-15T07:39:56.893Z,953.7
2017-05-15T07:41:04.979Z,953.7
2017-05-15T07:42:13.062Z,953.7
2017-05-15T07:43:21.158Z,953.7
2017-05-15T07:44:29.361Z,953.7
2017-05-15T07:45:37.325Z,953.6
2017-05-15T07:46:45.752Z,953.6
2017-05-15T07:47:53.501Z,953.6
2017-05-15T07:49:01.586Z,953.6
2017-05-15T07:50:09.914Z,953.6
2017-05-15T07:51:17.873Z,953.6
2017-05-15T07:52:26.014Z,953.6
2017-05-15T07:53:33.924Z,953.7
2017-05-15T07:54:42.009Z,953.7
2017-05-15T07:55:50.150Z,953.6
2017-05-15T07:56:58.182Z,953.7
2017-05-15T07:58:06.273Z,953.7
2017-05-15T07:59:14.360Z,953.7
2017-05-15T08:00:22.448Z,953.6
2017-05-15T08:01:30.970Z,953.7
2017-05-15T08:02:38.615Z,953.7
2017-05-15T08:03:46.704Z,953.7
2017-05-15T08:04:54.863Z,953.7
2017-05-15T08:06:03.067Z,953.7
2017-05-15T08:07:11.079Z,953.7
2017-05-15T08:08:19.046Z,953.7
2017-05-15T08:09:27.129Z,953.7
2017-05-15T08:10:35.214Z,953.7
2017-05-15T08:11:43.487Z,953.7
2017-05-15T08:12:51.446Z,953.7
2017-05-15T08:13:59.471Z,953.8
2017-05-15T08:15:07.557Z,953.7
2017-05-15T08:16:15.644Z,953.8
2017-05-15T08:17:23.767Z,953.8
2017-05-15T08:18:31.992Z,953.8
2017-05-15T08:19:39.906Z,953.8
2017-05-15T08:20:47.992Z,953.8
2017-05-15T08:21:56.072Z,953.8
2017-05-15T08:23:04.282Z,953.9
2017-05-15T08:24:12.482Z,953.8
2017-05-15T08:25:21.011Z,953.9
2017-05-15T08:26:28.422Z,953.8
2017-05-15T08:27:36.506Z,953.8
2017-05-15T08:28:44.590Z,953.8
2017-05-15T08:29:52.933Z,953.8
2017-05-15T08:31:00.765Z,953.8
2017-05-15T08:32:08.847Z,953.8
2017-05-15T08:33:16.931Z,953.8
2017-05-15T08:34:25.025Z,953.8
2017-05-15T08:35:33.238Z,953.8
2017-05-15T08:36:41.342Z,953.8
2017-05-15T08:37:49.283Z,953.9
2017-05-15T08:38:57.491Z,953.8
2017-05-15T08:40:05.461Z,953.9
2017-05-15T08:41:13.604Z,953.9
2017-05-15T08:42:21.692Z,953.8
2017-05-15T08:43:29.723Z,953.9
2017-05-15T08:44:37.807Z,953.9
2017-05-15T08:45:45.893Z,953.8
2017-05-15T08:46:54.138Z,953.9
2017-05-15T08:48:02.080Z,953.9
2017-05-15T08:49:10.177Z,953.9
2017-05-15T08:50:18.238Z,953.9
2017-05-15T08:51:26.322Z,953.9
2017-05-15T08:52:34.719Z,953.9
2017-05-15T08:53:42.537Z,953.9
2017-05-15T08:54:50.703Z,953.9
2017-05-15T08:55:58.665Z,953.9
2017-05-15T08:57:06.749Z,953.8
2017-05-15T08:58:14.955Z,953.9
2017-05-15T08:59:22.922Z,953.8
2017-05-15T09:00:31.012Z,953.8
2017-05-15T09:01:39.098Z,953.8
2017-05-15T09:02:47.180Z,953.8
2017-05-15T09:03:55.393Z,953.8
2017-05-15T09:05:03.510Z,953.8
2017-05-15T09:06:11.639Z,953.8
2017-05-15T09:07:19.522Z,953.8
2017-05-15T09:08:27.610Z,953.8
2017-05-15T09:09:35.816Z,953.8
2017-05-15T09:10:43.911Z,953.8
2017-05-15T09:11:51.866Z,953.8
2017-05-15T09:12:59.959Z,953.8
2017-05-15T09:14:08.044Z,953.8
2017-05-15T09:15:16.186Z,953.8
2017-05-15T09:16:24.215Z,953.8
2017-05-15T09:17:32.448Z,953.8
2017-05-15T09:18:40.554Z,953.8
2017-05-15T09:19:48.478Z,953.8
2017-05-15T09:20:56.686Z,953.8
2017-05-15T09:22:04.648Z,953.7
2017-05-15T09:23:12.733Z,953.8
2017-05-15T09:24:20.981Z,953.8
2017-05-15T09:25:28.904Z,953.7
2017-05-15T09:26:37.109Z,953.7
2017-05-15T09:27:45.077Z,953.7
2017-05-15T09:28:53.162Z,953.8
2017-05-15T09:30:01.411Z,953.7
2017-05-15T09:31:09.512Z,953.8
2017-05-15T09:32:17.543Z,953.7
2017-05-15T09:33:25.644Z,953.7
2017-05-15T09:34:33.593Z,953.7
2017-05-15T09:35:41.698Z,953.7
2017-05-15T09:36:49.826Z,953.7
2017-05-15T09:37:57.906Z,953.7
2017-05-15T09:39:05.936Z,953.7
2017-05-15T09:40:14.022Z,953.6
2017-05-15T09:41:22.117Z,953.6
2017-05-15T09:42:30.373Z,953.6
2017-05-15T09:43:38.401Z,953.6
2017-05-15T09:44:46.391Z,953.6
2017-05-15T09:45:54.451Z,953.6
2017-05-15T09:47:02.537Z,953.6
2017-05-15T09:48:10.627Z,953.6
2017-05-15T09:49:18.839Z,953.6
2017-05-15T09:50:26.806Z,953.6
2017-05-15T09:51:34.892Z,953.6
2017-05-15T09:52:42.974Z,953.6
2017-05-15T09:53:51.058Z,953.6
2017-05-15T09:54:59.300Z,953.6
2017-05-15T09:56:07.232Z,953.6
2017-05-15T09:57:15.318Z,953.6
2017-05-15T09:58:23.525Z,953.6
2017-05-15T09:59:31.495Z,953.6
2017-05-15T10:00:39.753Z,953.6
2017-05-15T10:01:47.754Z,953.6
2017-05-15T10:02:55.796Z,953.6
2017-05-15T10:04:03.835Z,953.5
2017-05-15T10:05:11.924Z,953.6
2017-05-15T10:06:20.069Z,953.5
2017-05-15T10:07:28.139Z,953.6
2017-05-15T10:08:36.183Z,953.6
2017-05-15T10:09:44.272Z,953.6
2017-05-15T10:10:52.353Z,953.6
2017-05-15T10:12:00.558Z,953.6
2017-05-15T10:13:08.529Z,953.6
2017-05-15T10:14:16.731Z,953.6
2017-05-15T10:15:24.707Z,953.6
2017-05-15T10:16:32.790Z,953.6
2017-05-15T10:17:41.126Z,953.6
2017-05-15T10:18:48.957Z,953.6
2017-05-15T10:19:57.042Z,953.6
2017-05-15T10:21:05.129Z,953.6
2017-05-15T10:22:13.223Z,953.6
2017-05-15T10:23:21.433Z,953.6
2017-05-15T10:24:29.547Z,953.7
2017-05-15T10:25:37.480Z,953.7
2017-05-15T10:26:45.567Z,953.6
2017-05-15T10:27:53.653Z,953.6
2017-05-15T10:29:01.801Z,953.6
2017-05-15T10:30:09.951Z,953.6
2017-05-15T10:31:17.915Z,953.6
2017-05-15T10:32:26.031Z,953.6
2017-05-15T10:33:34.088Z,953.6
2017-05-15T10:34:42.232Z,953.6
2017-05-15T10:35:50.276Z,953.6
2017-05-15T10:36:58.363Z,953.6
2017-05-15T10:38:06.435Z,953.6
2017-05-15T10:39:14.520Z,953.6
2017-05-15T10:40:22.728Z,953.6
2017-05-15T10:41:30.693Z,953.7
2017-05-15T10:42:38.784Z,953.7
2017-05-15T10:43:46.871Z,953.6
2017-05-15T10:44:54.956Z,953.6
2017-05-15T10:46:03.163Z,953.6
2017-05-15T10:47:11.132Z,953.6
2017-05-15T10:48:19.214Z,953.6
2017-05-15T10:49:27.304Z,953.6
2017-05-15T10:50:35.386Z,953.6
2017-05-15T10:51:43.597Z,953.6
2017-05-15T10:52:51.564Z,953.6
2017-05-15T10:53:59.815Z,953.6
2017-05-15T10:55:07.734Z,953.6
2017-05-15T10:56:15.818Z,953.6
2017-05-15T10:57:24.031Z,953.6
2017-05-15T10:58:32.174Z,953.6
2017-05-15T11:00:48.263Z,953.7
2017-05-15T11:01:56.367Z,953.7
2017-05-15T11:03:04.762Z,953.7
2017-05-15T11:04:12.419Z,953.7
2017-05-15T11:05:20.508Z,953.7
2017-05-15T11:06:28.647Z,953.7
2017-05-15T11:07:36.682Z,953.7
2017-05-15T11:08:44.888Z,953.7
2017-05-15T11:09:52.851Z,953.8
2017-05-15T11:11:00.940Z,953.7
2017-05-15T11:12:09.023Z,953.8
2017-05-15T11:13:17.115Z,953.8
2017-05-15T11:14:25.320Z,953.8
2017-05-15T11:15:33.286Z,953.8
2017-05-15T11:16:41.553Z,953.8
2017-05-15T11:17:49.786Z,953.8
2017-05-15T11:18:57.545Z,953.8
2017-05-15T11:20:05.686Z,953.8
2017-05-15T11:21:13.716Z,953.8
2017-05-15T11:22:21.804Z,953.8
2017-05-15T11:23:30.025Z,953.8
2017-05-15T11:24:37.978Z,953.8
2017-05-15T11:25:46.184Z,953.8
2017-05-15T11:26:54.150Z,953.8
2017-05-15T11:28:02.235Z,953.8
2017-05-15T11:29:10.389Z,953.8
2017-05-15T11:30:18.418Z,953.8
2017-05-15T11:31:26.619Z,953.8
2017-05-15T11:32:34.588Z,953.8
2017-05-15T11:33:42.789Z,953.8
2017-05-15T11:34:50.755Z,953.8
2017-05-15T11:35:58.851Z,953.8
2017-05-15T11:37:07.048Z,953.8
2017-05-15T11:38:15.065Z,953.8
2017-05-15T11:39:23.122Z,953.8
2017-05-15T11:40:31.185Z,953.8
2017-05-15T11:41:39.365Z,953.7
2017-05-15T11:42:47.413Z,953.8
2017-05-15T11:43:55.445Z,953.8
2017-05-15T11:45:03.532Z,953.8
2017-05-15T11:46:11.616Z,953.7
2017-05-15T11:47:19.710Z,953.7
2017-05-15T11:48:27.915Z,953.7
2017-05-15T11:49:35.938Z,953.7
2017-05-15T11:50:43.965Z,953.6
2017-05-15T11:51:52.046Z,953.7
2017-05-15T11:53:00.133Z,953.6
2017-05-15T11:54:08.366Z,953.6
2017-05-15T11:55:16.306Z,953.6
2017-05-15T11:56:24.392Z,953.7
2017-05-15T11:57:32.480Z,953.7
2017-05-15T11:58:40.563Z,953.6
2017-05-15T11:59:48.778Z,953.6
2017-05-15T12:00:56.743Z,953.6
2017-05-15T12:02:04.832Z,953.6
2017-05-15T12:03:12.917Z,953.6
2017-05-15T12:04:21.106Z,953.6
2017-05-15T12:05:29.247Z,953.6
2017-05-15T12:06:37.177Z,953.6
2017-05-15T12:07:45.436Z,953.6
2017-05-15T12:08:53.346Z,953.6
2017-05-15T12:10:01.434Z,953.6
2017-05-15T12:11:09.812Z,953.6
2017-05-15T12:12:17.606Z,953.6
2017-05-15T12:13:25.692Z,953.6
2017-05-15T12:14:33.781Z,953.6
2017-05-15T12:15:41.864Z,953.6
2017-05-15T12:16:50.201Z,953.5
2017-05-15T12:17:58.243Z,953.5
2017-05-15T12:19:06.131Z,953.5
2017-05-15T12:20:14.221Z,953.5
2017-05-15T12:21:22.427Z,953.5
2017-05-15T12:22:30.514Z,953.5
2017-05-15T12:23:38.624Z,953.5
2017-05-15T12:24:46.565Z,953.5
2017-05-15T12:25:54.650Z,953.5
2017-05-15T12:27:02.735Z,953.5
2017-05-15T12:28:10.942Z,953.5
2017-05-15T12:29:18.908Z,953.5
2017-05-15T12:30:27.108Z,953.5
2017-05-15T12:31:35.084Z,953.5
2017-05-15T12:32:43.169Z,953.6
2017-05-15T12:33:51.314Z,953.5
2017-05-15T12:34:59.343Z,953.6
2017-05-15T12:36:07.506Z,953.6
2017-05-15T12:37:15.632Z,953.6
2017-05-15T12:38:23.598Z,953.6
2017-05-15T12:39:31.807Z,953.6
2017-05-15T12:40:39.818Z,953.6
2017-05-15T12:41:47.860Z,953.7
2017-05-15T12:42:55.946Z,953.6
2017-05-15T12:44:04.033Z,953.6
2017-05-15T12:45:12.240Z,953.6
2017-05-15T12:46:20.208Z,953.6
2017-05-15T12:47:28.294Z,953.5
2017-05-15T12:48:36.380Z,953.6
2017-05-15T12:49:44.466Z,953.5
2017-05-15T12:50:52.675Z,953.5
2017-05-15T12:52:00.641Z,953.5
2017-05-15T12:53:08.849Z,953.5
2017-05-15T12:54:16.819Z,953.6
2017-05-15T12:55:24.898Z,953.5
2017-05-15T12:56:33.104Z,953.6
2017-05-15T12:57:41.073Z,953.6
2017-05-15T12:58:49.157Z,953.6
2017-05-15T12:59:57.246Z,953.6
2017-05-15T13:01:05.365Z,953.6
2017-05-15T13:02:13.539Z,953.6
2017-05-15T13:03:21.505Z,953.6
2017-05-15T13:04:29.594Z,953.5
2017-05-15T13:05:37.678Z,953.6
2017-05-15T13:06:45.764Z,953.6
2017-05-15T13:07:53.971Z,953.6
2017-05-15T13:09:02.061Z,953.5
2017-05-15T13:10:10.023Z,953.5
2017-05-15T13:11:18.110Z,953.5
2017-05-15T13:12:26.198Z,953.5
2017-05-15T13:13:34.407Z,953.6
2017-05-15T13:14:42.370Z,953.5
2017-05-15T13:15:50.455Z,953.5
2017-05-15T13:16:58.550Z,953.5
2017-05-15T13:18:06.816Z,953.5
2017-05-15T13:19:14.843Z,953.5
2017-05-15T13:20:22.808Z,953.5
2017-05-15T13:21:30.900Z,953.5
2017-05-15T13:22:38.985Z,953.5
2017-05-15T13:23:47.169Z,953.5
2017-05-15T13:24:55.275Z,953.5
2017-05-15T13:26:03.243Z,953.5
2017-05-15T13:27:11.330Z,953.5
2017-05-15T13:28:19.415Z,953.5
2017-05-15T13:29:27.535Z,953.4
2017-05-15T13:30:35.769Z,953.4
2017-05-15T13:31:43.676Z,953.4
2017-05-15T13:32:51.761Z,953.4
2017-05-15T13:33:59.846Z,953.4
2017-05-15T13:35:07.935Z,953.3
2017-05-15T13:36:16.093Z,953.4
2017-05-15T13:37:24.105Z,953.4
2017-05-15T13:38:32.192Z,953.4
2017-05-15T13:39:40.281Z,953.3
2017-05-15T13:40:48.488Z,953.3
2017-05-15T13:41:56.599Z,953.3
2017-05-15T13:43:04.545Z,953.3
2017-05-15T13:44:12.626Z,953.3
2017-05-15T13:45:20.709Z,953.3
2017-05-15T13:46:28.799Z,953.3
2017-05-15T13:47:37.006Z,953.3
2017-05-15T13:48:44.973Z,953.3
2017-05-15T13:49:53.059Z,953.2
2017-05-15T13:51:01.146Z,953.2
2017-05-15T13:52:09.233Z,953.2
2017-05-15T13:53:17.575Z,953.2
2017-05-15T13:54:25.403Z,953.2
2017-05-15T13:55:33.492Z,953.2
2017-05-15T13:56:41.698Z,953.2
2017-05-15T13:57:49.665Z,953.2
2017-05-15T13:58:57.873Z,953.2
2017-05-15T14:00:05.840Z,953.2
2017-05-15T14:01:13.927Z,953.2
2017-05-15T14:02:22.014Z,953.2
2017-05-15T14:03:30.101Z,953.2
2017-05-15T14:04:38.311Z,953.1
2017-05-15T14:05:46.298Z,953.1
2017-05-15T14:06:54.359Z,953.1
2017-05-15T14:08:02.445Z,953.1
2017-05-15T14:09:10.533Z,953.2
2017-05-15T14:10:18.743Z,953.2
2017-05-15T14:11:26.708Z,953.1
2017-05-15T14:12:34.915Z,953.1
2017-05-15T14:13:42.880Z,953.1
2017-05-15T14:14:50.976Z,953.1
2017-05-15T14:15:59.176Z,953.1
2017-05-15T14:17:07.144Z,953.0
2017-05-15T14:18:15.227Z,953.0
2017-05-15T14:19:23.317Z,953.0
2017-05-15T14:20:31.402Z,953.0
2017-05-15T14:21:39.548Z,953.0
2017-05-15T14:22:47.777Z,953.0
2017-05-15T14:23:55.830Z,953.0
2017-05-15T14:25:03.747Z,953.0
2017-05-15T14:26:11.843Z,953.0
2017-05-15T14:27:20.041Z,953.0
2017-05-15T14:28:28.255Z,953.0
2017-05-15T14:29:36.238Z,953.0
2017-05-15T14:30:44.183Z,953.0
2017-05-15T14:31:52.277Z,953.0
2017-05-15T14:33:00.477Z,953.0
2017-05-15T14:34:08.440Z,953.0
2017-05-15T14:35:16.600Z,953.0
2017-05-15T14:36:24.621Z,953.0
2017-05-15T14:37:32.702Z,953.0